Time;durP1;ratioP1;P1;durP2;ratioP2;P2;SDS_P1;SDS_P2;PMS_P1;PMS_P2;Temp;Humidity;BMP_temperature;BMP_pressure;BME280_temperature;BME280_humidity;BME280_pressure;Samples;Min_cycle;Max_cycle;Signal;HPM_P1;HPM_P2
2022/03/29 00:01:59;;;;;;;33.30;14.10;;;7.90;99.90;;;;;;5076450;28;20063;-73
2022/03/29 00:04:25;;;;;;;31.23;13.35;;;7.90;99.90;;;;;;5076003;28;20024;-73
2022/03/29 00:06:54;;;;;;;36.92;14.00;;;7.90;99.90;;;;;;5075895;28;20033;-73
2022/03/29 00:09:20;;;;;;;32.67;13.73;;;7.90;99.90;;;;;;5075956;28;20116;-72
2022/03/29 00:11:46;;;;;;;31.27;13.85;;;7.90;99.90;;;;;;5075078;28;20482;-73
2022/03/29 00:14:14;;;;;;;35.97;14.55;;;7.90;99.90;;;;;;5075806;28;20053;-75
2022/03/29 00:16:40;;;;;;;34.83;14.65;;;7.80;99.90;;;;;;5074515;28;20016;-75
2022/03/29 00:19:07;;;;;;;36.78;13.90;;;7.80;99.90;;;;;;5074343;28;20374;-74
2022/03/29 00:21:32;;;;;;;35.45;14.05;;;7.70;99.90;;;;;;5075728;28;20040;-75
2022/03/29 00:23:58;;;;;;;38.25;15.68;;;7.70;99.90;;;;;;5074356;28;20070;-75
2022/03/29 00:26:24;;;;;;;35.92;14.43;;;7.70;99.90;;;;;;5075378;28;20462;-75
2022/03/29 00:28:49;;;;;;;35.25;14.13;;;7.70;99.90;;;;;;5075454;28;20031;-75
2022/03/29 00:31:16;;;;;;;40.45;16.17;;;7.70;99.90;;;;;;5074217;28;20017;-75
2022/03/29 00:33:42;;;;;;;40.65;15.57;;;7.70;99.90;;;;;;5075413;28;20029;-75
2022/03/29 00:36:08;;;;;;;38.10;15.23;;;7.70;99.90;;;;;;5075366;28;20066;-75
2022/03/29 00:38:33;;;;;;;36.67;15.07;;;7.70;99.90;;;;;;5075586;28;20055;-75
2022/03/29 00:40:59;;;;;;;37.67;15.50;;;7.70;99.90;;;;;;5073862;28;20074;-75
2022/03/29 00:43:25;;;;;;;39.15;15.43;;;7.70;99.90;;;;;;5075481;28;20016;-75
2022/03/29 00:45:51;;;;;;;39.35;14.80;;;7.70;99.90;;;;;;5075225;28;20528;-75
2022/03/29 00:48:17;;;;;;;41.90;16.40;;;7.70;99.90;;;;;;5075009;28;20470;-75
2022/03/29 00:50:44;;;;;;;40.65;17.05;;;7.70;99.90;;;;;;5073681;28;20023;-75
2022/03/29 00:53:10;;;;;;;40.92;16.15;;;7.70;99.90;;;;;;5075269;28;20029;-74
2022/03/29 00:55:37;;;;;;;38.00;16.27;;;7.70;99.90;;;;;;5075181;28;20029;-75
2022/03/29 00:58:04;;;;;;;37.13;15.52;;;7.70;99.90;;;;;;5075113;28;20047;-75
2022/03/29 01:00:36;;;;;;;39.28;16.05;;;7.70;99.90;;;;;;5074682;28;20495;-75
2022/03/29 01:03:03;;;;;;;39.47;15.00;;;7.70;99.90;;;;;;5074611;28;20114;-75
2022/03/29 01:05:29;;;;;;;38.42;14.10;;;7.70;99.90;;;;;;5074752;28;20028;-75
2022/03/29 01:07:55;;;;;;;40.88;14.57;;;7.70;99.90;;;;;;5075283;28;20021;-75
2022/03/29 01:10:22;;;;;;;37.42;15.35;;;7.70;99.90;;;;;;5074802;28;20028;-74
2022/03/29 01:12:47;;;;;;;40.08;15.45;;;7.60;99.90;;;;;;5075225;28;20035;-74
2022/03/29 01:15:13;;;;;;;33.80;14.18;;;7.60;99.90;;;;;;5076048;28;20389;-75
2022/03/29 01:17:41;;;;;;;36.22;15.38;;;7.60;99.90;;;;;;5073208;28;20025;-75
2022/03/29 01:20:08;;;;;;;36.70;15.45;;;7.60;99.90;;;;;;5073066;28;20020;-75
2022/03/29 01:22:34;;;;;;;43.92;15.45;;;7.60;99.90;;;;;;5072360;28;20032;-76
2022/03/29 01:25:00;;;;;;;36.90;15.38;;;7.60;99.90;;;;;;5074485;28;20096;-76
2022/03/29 01:27:29;;;;;;;39.30;15.70;;;7.60;99.90;;;;;;5073066;28;20067;-77
2022/03/29 01:29:57;;;;;;;43.75;15.35;;;7.60;99.90;;;;;;5072939;28;20051;-76
2022/03/29 01:32:23;;;;;;;36.63;14.05;;;7.60;99.90;;;;;;5074570;28;20044;-75
2022/03/29 01:34:50;;;;;;;46.78;15.30;;;7.60;99.90;;;;;;5072903;28;20048;-75
2022/03/29 01:37:17;;;;;;;38.25;14.65;;;7.60;99.90;;;;;;5074145;28;20021;-75
2022/03/29 01:39:42;;;;;;;39.92;15.57;;;7.60;99.90;;;;;;5074470;28;20028;-76
2022/03/29 01:42:08;;;;;;;37.67;13.68;;;7.50;99.90;;;;;;5072679;28;20013;-76
2022/03/29 01:44:34;;;;;;;36.88;15.07;;;7.50;99.90;;;;;;5074434;28;20020;-76
2022/03/29 01:46:59;;;;;;;38.50;14.38;;;7.50;99.90;;;;;;5074457;28;20151;-76
2022/03/29 01:49:25;;;;;;;40.25;15.25;;;7.50;99.90;;;;;;5072606;28;20078;-76
2022/03/29 01:51:51;;;;;;;39.10;14.05;;;7.50;99.90;;;;;;5073880;28;20025;-76
2022/03/29 01:54:16;;;;;;;38.72;14.25;;;7.50;99.90;;;;;;5073777;28;20064;-76
2022/03/29 01:56:42;;;;;;;36.25;14.32;;;7.50;99.90;;;;;;5073889;28;20028;-76
2022/03/29 01:59:11;;;;;;;36.80;15.23;;;7.50;99.90;;;;;;5074166;28;20021;-76
2022/03/29 02:01:47;;;;;;;41.08;15.57;;;7.50;99.90;;;;;;5073738;28;20024;-75
2022/03/29 02:04:13;;;;;;;41.40;15.13;;;7.50;99.90;;;;;;5073672;28;20029;-75
2022/03/29 02:06:40;;;;;;;41.33;15.73;;;7.50;99.90;;;;;;5073583;28;20024;-76
2022/03/29 02:09:10;;;;;;;36.63;13.80;;;7.50;99.90;;;;;;5073485;28;20074;-76
2022/03/29 02:11:40;;;;;;;38.72;14.73;;;7.50;99.90;;;;;;5073964;28;20406;-75
2022/03/29 02:14:06;;;;;;;42.03;16.13;;;7.50;99.90;;;;;;5073383;28;20405;-75
2022/03/29 02:16:33;;;;;;;43.78;15.38;;;7.50;99.90;;;;;;5073506;28;20021;-75
2022/03/29 02:18:58;;;;;;;40.20;15.98;;;7.60;99.90;;;;;;5073360;28;20024;-75
2022/03/29 02:21:24;;;;;;;39.95;15.98;;;7.60;99.90;;;;;;5072475;28;20039;-76
2022/03/29 02:23:50;;;;;;;45.20;15.40;;;7.60;99.90;;;;;;5074013;28;20425;-76
2022/03/29 02:26:15;;;;;;;40.03;15.27;;;7.60;99.90;;;;;;5073507;28;20099;-76
2022/03/29 02:28:41;;;;;;;35.38;13.57;;;7.60;99.90;;;;;;5073480;28;20063;-76
2022/03/29 02:31:06;;;;;;;38.08;13.48;;;7.60;99.90;;;;;;5072102;28;20481;-76
2022/03/29 02:33:32;;;;;;;37.55;14.13;;;7.60;99.90;;;;;;5073336;28;20025;-76
2022/03/29 02:35:57;;;;;;;35.58;13.90;;;7.50;99.90;;;;;;5073159;28;20432;-76
2022/03/29 02:38:23;;;;;;;34.20;13.68;;;7.50;99.90;;;;;;5073359;28;20107;-75
2022/03/29 02:40:49;;;;;;;39.60;14.88;;;7.50;99.90;;;;;;5073571;28;20040;-75
2022/03/29 02:43:14;;;;;;;35.35;13.35;;;7.50;99.90;;;;;;5072085;28;20476;-75
2022/03/29 02:45:40;;;;;;;36.38;13.43;;;7.50;99.90;;;;;;5071974;28;20045;-75
2022/03/29 02:48:06;;;;;;;36.72;14.77;;;7.50;99.90;;;;;;5073762;28;20107;-75
2022/03/29 02:50:32;;;;;;;37.92;14.63;;;7.50;99.90;;;;;;5073318;28;20350;-75
2022/03/29 02:53:02;;;;;;;33.75;14.35;;;7.50;99.90;;;;;;5073171;28;20107;-75
2022/03/29 02:55:31;;;;;;;35.47;13.70;;;7.50;99.90;;;;;;5073711;28;20508;-75
2022/03/29 02:57:57;;;;;;;39.00;13.93;;;7.50;99.90;;;;;;5071941;28;20029;-74
2022/03/29 03:00:23;;;;;;;36.95;15.00;;;7.50;99.90;;;;;;5073101;28;20427;-74
2022/03/29 03:02:54;;;;;;;37.55;14.20;;;7.50;99.90;;;;;;5073079;28;20485;-74
2022/03/29 03:05:20;;;;;;;35.45;14.07;;;7.50;99.90;;;;;;5073149;28;20021;-75
2022/03/29 03:07:47;;;;;;;36.63;13.23;;;7.50;99.90;;;;;;5073006;28;20476;-75
2022/03/29 03:10:14;;;;;;;40.03;15.00;;;7.50;99.90;;;;;;5072947;28;20024;-75
2022/03/29 03:12:42;;;;;;;39.20;14.85;;;7.50;99.90;;;;;;5073006;28;20020;-75
2022/03/29 03:15:09;;;;;;;38.40;15.13;;;7.40;99.90;;;;;;5072770;28;20021;-74
2022/03/29 03:17:35;;;;;;;36.85;13.38;;;7.50;99.90;;;;;;5072919;28;20270;-74
2022/03/29 03:20:01;;;;;;;34.85;13.80;;;7.50;99.90;;;;;;5071655;28;20527;-75
2022/03/29 03:22:27;;;;;;;35.67;13.77;;;7.50;99.90;;;;;;5072751;28;20033;-75
2022/03/29 03:24:52;;;;;;;38.70;14.65;;;7.40;99.90;;;;;;5071462;28;20024;-74
2022/03/29 03:27:19;;;;;;;30.90;12.88;;;7.40;99.90;;;;;;5071651;28;20071;-74
2022/03/29 03:29:44;;;;;;;36.40;13.35;;;7.40;99.90;;;;;;5072712;28;20048;-73
2022/03/29 03:32:11;;;;;;;33.03;14.10;;;7.40;99.90;;;;;;5072938;28;20060;-73
2022/03/29 03:34:37;;;;;;;42.53;13.48;;;7.30;99.90;;;;;;5071439;28;20108;-73
2022/03/29 03:37:03;;;;;;;32.08;13.50;;;7.30;99.90;;;;;;5072782;28;20103;-73
2022/03/29 03:39:30;;;;;;;33.83;13.02;;;7.30;99.90;;;;;;5072776;28;20055;-73
2022/03/29 03:41:55;;;;;;;33.88;13.55;;;7.30;99.90;;;;;;5072961;28;20036;-73
2022/03/29 03:44:22;;;;;;;37.70;14.02;;;7.20;99.90;;;;;;5072555;28;20052;-73
2022/03/29 03:46:48;;;;;;;29.83;12.32;;;7.30;99.90;;;;;;5072938;28;20558;-73
2022/03/29 03:49:17;;;;;;;37.25;13.48;;;7.20;99.90;;;;;;5074933;28;20108;-73
2022/03/29 03:51:45;;;;;;;33.47;12.40;;;7.20;99.90;;;;;;5074872;28;20024;-73
2022/03/29 03:54:11;;;;;;;31.10;12.80;;;7.20;99.90;;;;;;5076415;28;20492;-73
2022/03/29 03:56:36;;;;;;;31.75;12.48;;;7.20;99.90;;;;;;5076032;28;20063;-73
2022/03/29 03:59:02;;;;;;;35.63;12.88;;;7.20;99.90;;;;;;5075933;28;20024;-73
2022/03/29 04:01:28;;;;;;;30.20;11.95;;;7.20;99.90;;;;;;5076238;28;20024;-73
2022/03/29 04:03:53;;;;;;;35.70;13.57;;;7.20;99.90;;;;;;5074616;28;20020;-75
2022/03/29 04:06:19;;;;;;;37.78;14.00;;;7.20;99.90;;;;;;5074552;28;20027;-75
2022/03/29 04:08:45;;;;;;;34.85;12.75;;;7.20;99.90;;;;;;5075835;28;20377;-75
2022/03/29 04:11:11;;;;;;;32.10;12.65;;;7.10;99.90;;;;;;5076008;28;20111;-75
2022/03/29 04:13:36;;;;;;;32.78;12.27;;;7.10;99.90;;;;;;5075963;28;20028;-75
2022/03/29 04:16:03;;;;;;;35.30;11.85;;;7.10;99.90;;;;;;5075679;28;20032;-75
2022/03/29 04:18:28;;;;;;;33.67;12.80;;;7.10;99.90;;;;;;5075925;28;20047;-75
2022/03/29 04:20:54;;;;;;;31.67;12.02;;;7.10;99.90;;;;;;5075370;28;20025;-75
2022/03/29 04:23:20;;;;;;;31.13;11.98;;;7.10;99.90;;;;;;5074128;28;20036;-74
2022/03/29 04:25:46;;;;;;;32.25;12.77;;;7.10;99.90;;;;;;5075573;28;20539;-75
2022/03/29 04:28:11;;;;;;;35.30;12.50;;;7.00;99.90;;;;;;5075746;28;20037;-74
2022/03/29 04:30:38;;;;;;;33.47;12.90;;;7.00;99.90;;;;;;5075319;28;20017;-74
2022/03/29 04:33:03;;;;;;;33.40;12.43;;;7.00;99.90;;;;;;5075627;28;20021;-75
2022/03/29 04:35:29;;;;;;;32.83;12.95;;;7.00;99.90;;;;;;5075929;28;20020;-75
2022/03/29 04:37:54;;;;;;;34.97;12.93;;;7.00;99.90;;;;;;5075497;28;20373;-75
2022/03/29 04:40:21;;;;;;;33.95;11.93;;;7.00;99.90;;;;;;5075193;28;20028;-75
2022/03/29 04:42:48;;;;;;;33.00;12.63;;;7.10;99.90;;;;;;5075510;28;20424;-75
2022/03/29 04:45:15;;;;;;;31.83;12.70;;;7.00;99.90;;;;;;5075227;28;20074;-75
2022/03/29 04:47:42;;;;;;;34.65;12.38;;;7.00;99.90;;;;;;5074976;28;20023;-75
2022/03/29 04:50:09;;;;;;;35.00;12.95;;;7.00;99.90;;;;;;5074998;28;20021;-75
2022/03/29 04:52:35;;;;;;;33.45;12.30;;;7.00;99.90;;;;;;5074825;28;20020;-75
2022/03/29 04:55:01;;;;;;;41.03;12.52;;;7.00;99.90;;;;;;5073645;28;20017;-75
2022/03/29 04:57:26;;;;;;;33.53;13.32;;;7.00;99.90;;;;;;5073417;28;20069;-75
2022/03/29 04:59:52;;;;;;;32.42;13.30;;;7.00;99.90;;;;;;5074767;28;20027;-75
2022/03/29 05:02:18;;;;;;;31.88;11.82;;;7.00;99.90;;;;;;5074610;28;20048;-75
2022/03/29 05:04:44;;;;;;;32.30;12.70;;;7.00;99.90;;;;;;5073457;28;20117;-75
2022/03/29 05:07:10;;;;;;;35.13;13.02;;;7.00;99.90;;;;;;5073396;28;20032;-75
2022/03/29 05:09:36;;;;;;;30.98;13.07;;;7.00;99.90;;;;;;5074534;28;20017;-75
2022/03/29 05:12:01;;;;;;;37.60;12.63;;;7.00;99.90;;;;;;5074615;28;20021;-75
2022/03/29 05:14:27;;;;;;;38.35;13.75;;;7.00;99.90;;;;;;5074377;28;20025;-75
2022/03/29 05:16:53;;;;;;;34.40;13.00;;;6.90;99.90;;;;;;5074457;28;20028;-75
2022/03/29 05:19:18;;;;;;;29.40;10.93;;;6.90;99.90;;;;;;5074294;28;20025;-75
2022/03/29 05:21:44;;;;;;;28.27;10.90;;;6.80;99.90;;;;;;5073181;28;20041;-75
2022/03/29 05:24:09;;;;;;;28.08;10.65;;;6.80;99.90;;;;;;5074276;28;20028;-75
2022/03/29 05:26:35;;;;;;;25.33;10.52;;;6.80;99.90;;;;;;5074771;28;20429;-74
2022/03/29 05:29:02;;;;;;;32.10;13.32;;;6.80;99.90;;;;;;5074095;28;20047;-76
2022/03/29 05:31:28;;;;;;;31.13;11.30;;;6.80;99.90;;;;;;5074209;28;20016;-76
2022/03/29 05:33:53;;;;;;;37.63;12.55;;;6.70;99.90;;;;;;5072939;28;20115;-76
2022/03/29 05:36:19;;;;;;;35.15;11.77;;;6.70;99.90;;;;;;5072763;28;20024;-76
2022/03/29 05:38:49;;;;;;;33.67;13.35;;;6.70;99.90;;;;;;5074664;28;20021;-76
2022/03/29 05:41:19;;;;;;;34.15;12.50;;;6.70;99.90;;;;;;5073050;28;20017;-76
2022/03/29 05:43:45;;;;;;;33.78;12.45;;;6.70;99.90;;;;;;5073923;28;20039;-76
2022/03/29 05:48:55;;;;;;;36.63;13.13;;;6.70;99.90;;;;;;5074921;28;20097;-76
2022/03/29 05:51:24;;;;;;;32.65;12.35;;;6.70;99.90;;;;;;5072702;28;20025;-76
2022/03/29 05:53:51;;;;;;;35.00;12.50;;;6.70;99.90;;;;;;5074157;28;20032;-76
2022/03/29 05:56:17;;;;;;;33.78;12.23;;;6.70;99.90;;;;;;5072573;28;20398;-76
2022/03/29 05:58:43;;;;;;;33.35;11.73;;;6.70;99.90;;;;;;5073970;28;20029;-76
2022/03/29 06:01:08;;;;;;;32.47;11.73;;;6.70;99.90;;;;;;5073570;28;20050;-76
2022/03/29 06:03:34;;;;;;;34.58;12.73;;;6.70;99.90;;;;;;5073567;28;20059;-76
2022/03/29 06:06:00;;;;;;;28.23;11.10;;;6.80;99.90;;;;;;5073858;28;20017;-76
2022/03/29 06:08:25;;;;;;;32.05;11.85;;;6.80;99.90;;;;;;5073333;28;20028;-76
2022/03/29 06:10:53;;;;;;;30.17;11.85;;;6.80;99.90;;;;;;5073085;28;20032;-76
2022/03/29 06:13:18;;;;;;;30.17;10.90;;;6.80;99.90;;;;;;5073560;28;20016;-76
2022/03/29 06:15:44;;;;;;;29.15;11.05;;;6.70;99.90;;;;;;5074075;28;20374;-76
2022/03/29 06:18:09;;;;;;;28.67;11.48;;;6.70;99.90;;;;;;5073469;28;20430;-76
2022/03/29 06:20:35;;;;;;;31.17;12.23;;;6.80;99.90;;;;;;5073253;28;20036;-76
2022/03/29 06:23:00;;;;;;;32.13;12.48;;;6.80;99.90;;;;;;5072169;28;20036;-76
2022/03/29 06:25:26;;;;;;;30.08;12.43;;;6.80;99.90;;;;;;5073573;28;20058;-76
2022/03/29 06:27:54;;;;;;;29.42;10.07;;;6.80;99.90;;;;;;5073797;28;20514;-76
2022/03/29 06:30:20;;;;;;;33.23;12.43;;;6.70;99.90;;;;;;5073362;28;20063;-76
2022/03/29 06:32:47;;;;;;;31.83;11.05;;;6.70;99.90;;;;;;5072082;28;20048;-76
2022/03/29 06:35:13;;;;;;;34.47;12.05;;;6.70;99.90;;;;;;5073591;28;20048;-76
2022/03/29 06:37:38;;;;;;;32.08;11.30;;;6.70;99.90;;;;;;5073924;28;20024;-75
2022/03/29 06:40:05;;;;;;;37.28;11.95;;;6.70;99.90;;;;;;5073290;28;20389;-75
2022/03/29 06:42:30;;;;;;;33.28;11.95;;;6.80;99.90;;;;;;5071924;28;20032;-75
2022/03/29 06:44:56;;;;;;;33.80;11.82;;;6.90;99.90;;;;;;5073179;28;20017;-76
2022/03/29 06:47:21;;;;;;;33.17;12.35;;;7.00;99.90;;;;;;5072071;28;20066;-76
2022/03/29 06:49:47;;;;;;;34.40;11.93;;;6.90;99.90;;;;;;5073580;28;20017;-76
2022/03/29 06:52:12;;;;;;;28.65;11.82;;;6.90;99.90;;;;;;5073338;28;20094;-76
2022/03/29 06:54:38;;;;;;;28.58;11.68;;;6.90;99.90;;;;;;5072526;28;20086;-76
2022/03/29 06:57:05;;;;;;;33.80;11.75;;;7.00;99.90;;;;;;5073231;28;20056;-75
2022/03/29 06:59:31;;;;;;;30.55;12.23;;;7.10;99.90;;;;;;5071873;28;20024;-75
2022/03/29 07:01:56;;;;;;;29.38;10.90;;;7.10;99.90;;;;;;5074711;28;20103;-77
2022/03/29 07:04:22;;;;;;;30.35;11.15;;;7.20;99.90;;;;;;5073807;28;20074;-77
2022/03/29 07:06:47;;;;;;;26.98;11.18;;;7.20;99.90;;;;;;5072389;28;20021;-77
2022/03/29 07:12:18;;;;;;;31.20;11.18;;;7.40;99.90;;;;;;5071761;28;20116;-77
2022/03/29 07:14:43;;;;;;;31.95;11.25;;;7.50;99.90;;;;;;5071635;28;20557;-77
2022/03/29 07:17:13;;;;;;;31.05;11.45;;;7.60;99.90;;;;;;5061055;28;20128;-76
2022/03/29 07:19:39;;;;;;;31.40;13.20;;;7.60;99.90;;;;;;5073278;28;20013;-77
2022/03/29 07:22:05;;;;;;;31.10;11.68;;;7.80;99.90;;;;;;5075356;28;20036;-77
2022/03/29 07:24:31;;;;;;;30.98;11.77;;;7.80;99.90;;;;;;5076880;28;20453;-77
2022/03/29 07:26:57;;;;;;;26.20;10.48;;;7.90;99.90;;;;;;5075621;28;20024;-76
2022/03/29 07:29:23;;;;;;;26.08;10.73;;;7.90;99.90;;;;;;5076756;28;20082;-72
2022/03/29 07:31:48;;;;;;;28.30;11.30;;;7.90;99.90;;;;;;5075553;28;20028;-76
2022/03/29 07:34:15;;;;;;;27.60;10.85;;;7.90;99.90;;;;;;5076693;28;20070;-75
2022/03/29 07:36:41;;;;;;;26.92;11.25;;;7.90;99.90;;;;;;5077262;28;20405;-74
2022/03/29 07:39:08;;;;;;;31.33;12.13;;;7.90;99.90;;;;;;5077422;28;20158;-75
2022/03/29 07:41:33;;;;;;;27.42;11.10;;;7.90;99.90;;;;;;5076586;28;20107;-75
2022/03/29 07:43:59;;;;;;;28.73;10.43;;;8.00;99.90;;;;;;5076408;28;20059;-75
2022/03/29 07:46:25;;;;;;;25.52;10.40;;;8.00;99.90;;;;;;5076622;28;20069;-74
2022/03/29 07:48:51;;;;;;;27.40;9.32;;;8.10;99.90;;;;;;5076627;28;20028;-75
2022/03/29 07:51:17;;;;;;;25.65;9.93;;;8.20;99.90;;;;;;5076443;28;20032;-73
2022/03/29 07:53:44;;;;;;;30.80;11.25;;;8.20;99.90;;;;;;5077032;28;20103;-74
2022/03/29 07:56:09;;;;;;;25.85;10.60;;;8.20;99.90;;;;;;5076596;28;20090;-74
2022/03/29 07:58:35;;;;;;;26.67;9.73;;;8.40;99.90;;;;;;5076262;28;20016;-74
2022/03/29 08:01:01;;;;;;;23.70;9.40;;;8.50;99.90;;;;;;5076125;28;20055;-74
2022/03/29 08:03:32;;;;;;;25.00;9.48;;;8.50;99.90;;;;;;5076198;28;20486;-74
2022/03/29 08:05:59;;;;;;;20.92;8.80;;;8.60;99.90;;;;;;5076501;28;20420;-74
2022/03/29 08:08:24;;;;;;;24.77;9.48;;;8.60;99.90;;;;;;5076256;28;20417;-74
2022/03/29 08:10:50;;;;;;;27.83;9.90;;;8.50;99.90;;;;;;5076197;28;20031;-72
2022/03/29 08:13:18;;;;;;;28.40;10.65;;;8.40;99.90;;;;;;5075893;28;20020;-72
2022/03/29 08:15:48;;;;;;;26.23;9.77;;;8.40;99.90;;;;;;5075797;28;20116;-72
2022/03/29 08:18:15;;;;;;;24.38;9.32;;;8.30;99.90;;;;;;5075792;28;20028;-72
2022/03/29 08:20:41;;;;;;;28.67;10.65;;;8.30;99.90;;;;;;5076398;28;20025;-72
2022/03/29 08:23:07;;;;;;;24.35;10.30;;;8.30;99.90;;;;;;5075820;28;20057;-72
2022/03/29 08:25:36;;;;;;;29.27;10.20;;;8.40;99.90;;;;;;5076082;28;20012;-72
2022/03/29 08:28:02;;;;;;;25.85;10.95;;;8.50;99.90;;;;;;5076091;28;20028;-72
2022/03/29 08:30:29;;;;;;;25.48;9.65;;;8.70;99.90;;;;;;5076017;28;20032;-75
2022/03/29 08:32:57;;;;;;;23.15;9.45;;;8.80;99.90;;;;;;5073921;28;20028;-75
2022/03/29 08:35:24;;;;;;;22.63;9.93;;;8.80;99.90;;;;;;5074297;28;20111;-75
2022/03/29 08:37:49;;;;;;;25.52;9.88;;;8.70;99.90;;;;;;5075434;28;20031;-75
2022/03/29 08:40:21;;;;;;;25.60;9.45;;;8.70;99.90;;;;;;5074198;28;20020;-76
2022/03/29 08:42:48;;;;;;;26.73;10.38;;;8.80;99.90;;;;;;5074033;28;20031;-75
2022/03/29 08:45:16;;;;;;;21.77;9.50;;;8.90;99.90;;;;;;5074132;28;20024;-73
2022/03/29 08:47:45;;;;;;;26.20;9.88;;;9.00;99.90;;;;;;5075372;28;20020;-76
2022/03/29 08:50:12;;;;;;;18.63;6.53;;;9.10;99.90;;;;;;5075349;28;20021;-76
2022/03/29 08:52:39;;;;;;;25.63;10.13;;;9.20;99.90;;;;;;5075816;28;20478;-74
2022/03/29 08:55:06;;;;;;;27.60;10.93;;;9.30;99.90;;;;;;5075381;28;20074;-74
2022/03/29 08:57:32;;;;;;;23.02;9.50;;;9.30;99.90;;;;;;5074963;28;20033;-75
2022/03/29 08:59:58;;;;;;;23.67;10.02;;;9.40;99.90;;;;;;5074951;28;20021;-76
2022/03/29 09:02:25;;;;;;;21.92;9.40;;;9.50;99.90;;;;;;5073985;28;20016;-76
2022/03/29 09:05:30;;;;;;;24.98;10.20;;;9.60;99.90;;;;;;5074802;28;20024;-76
2022/03/29 09:08:03;;;;;;;25.48;9.98;;;9.50;99.90;;;;;;5053145;28;20025;-76
2022/03/29 09:10:45;;;;;;;25.35;10.45;;;9.50;99.90;;;;;;5071185;28;20133;-78
2022/03/29 09:13:29;;;;;;;22.92;9.75;;;9.50;99.90;;;;;;5073669;28;20063;-73
2022/03/29 09:15:57;;;;;;;24.25;9.70;;;9.50;99.90;;;;;;5075044;28;20055;-73
2022/03/29 09:18:23;;;;;;;25.40;10.25;;;9.70;99.90;;;;;;5073307;28;20085;-76
2022/03/29 09:21:08;;;;;;;24.83;10.52;;;9.80;99.90;;;;;;5074559;28;20016;-76
2022/03/29 09:23:34;;;;;;;26.63;10.32;;;9.90;99.90;;;;;;5075046;28;20111;-75
2022/03/29 09:26:01;;;;;;;25.08;9.57;;;10.00;99.90;;;;;;5073565;28;20048;-76
2022/03/29 09:28:36;;;;;;;26.05;9.48;;;10.00;99.90;;;;;;5075048;28;20021;-76
2022/03/29 09:31:23;;;;;;;22.52;9.95;;;10.00;99.90;;;;;;5073324;28;20470;-76
2022/03/29 09:33:49;;;;;;;26.73;9.73;;;10.10;99.90;;;;;;5074652;28;20025;-76
2022/03/29 09:36:20;;;;;;;23.33;9.98;;;10.30;99.90;;;;;;5074894;28;20059;-76
2022/03/29 09:38:47;;;;;;;25.73;10.35;;;10.40;99.90;;;;;;5073096;28;20025;-76
2022/03/29 09:41:29;;;;;;;26.63;10.40;;;10.50;99.90;;;;;;5072907;28;20027;-76
2022/03/29 09:44:11;;;;;;;26.13;9.85;;;10.60;99.90;;;;;;5073830;28;20035;-76
2022/03/29 09:46:59;;;;;;;23.90;9.48;;;10.90;99.90;;;;;;5073147;28;20032;-76
2022/03/29 09:49:26;;;;;;;25.07;9.60;;;11.10;99.90;;;;;;5072903;28;20366;-76
2022/03/29 09:52:14;;;;;;;24.00;9.27;;;11.20;99.90;;;;;;5074388;28;20025;-76
2022/03/29 09:54:39;;;;;;;23.60;9.85;;;11.10;99.90;;;;;;5074173;28;20059;-76
2022/03/29 09:57:05;;;;;;;21.80;8.90;;;11.20;99.90;;;;;;5073951;28;20386;-76
2022/03/29 09:59:36;;;;;;;22.45;10.95;;;11.10;99.90;;;;;;5074095;28;20024;-76
2022/03/29 10:02:03;;;;;;;24.95;10.35;;;11.00;99.90;;;;;;5072891;28;20024;-76
2022/03/29 10:04:30;;;;;;;23.17;10.43;;;10.90;99.90;;;;;;5072785;28;20489;-76
2022/03/29 10:06:58;;;;;;;25.08;10.85;;;10.80;99.90;;;;;;5074447;28;20420;-76
2022/03/29 10:09:37;;;;;;;29.02;9.65;;;10.90;99.90;;;;;;5074194;28;20016;-76
2022/03/29 10:12:08;;;;;;;26.70;9.75;;;10.90;99.90;;;;;;5072587;28;20032;-76
2022/03/29 10:14:39;;;;;;;24.73;10.68;;;10.80;99.90;;;;;;5072277;28;20017;-76
2022/03/29 10:17:07;;;;;;;24.52;10.50;;;10.90;99.90;;;;;;5073754;28;20032;-76
2022/03/29 10:19:33;;;;;;;24.52;10.23;;;11.00;99.90;;;;;;5073390;28;20024;-74
2022/03/29 10:22:01;;;;;;;31.98;10.82;;;11.20;99.90;;;;;;5073529;28;20108;-74
2022/03/29 10:24:28;;;;;;;26.60;11.35;;;11.40;99.90;;;;;;5072073;28;20028;-77
2022/03/29 10:26:59;;;;;;;28.67;11.10;;;11.70;99.90;;;;;;5073337;28;20464;-76
2022/03/29 10:29:25;;;;;;;26.50;12.40;;;11.90;99.90;;;;;;5073741;28;20070;-75
2022/03/29 10:31:56;;;;;;;24.63;10.25;;;12.00;99.90;;;;;;5073430;28;20024;-74
2022/03/29 10:34:27;;;;;;;23.25;10.48;;;12.20;99.90;;;;;;5073292;28;20398;-77
2022/03/29 10:37:12;;;;;;;28.02;11.73;;;12.30;99.90;;;;;;5073020;28;20024;-76
2022/03/29 10:39:53;;;;;;;26.17;9.38;;;12.30;99.90;;;;;;5073088;28;20401;-76
2022/03/29 10:42:52;;;;;;;28.25;9.77;;;12.10;99.90;;;;;;5073104;28;20027;-76
2022/03/29 10:45:19;;;;;;;;;;;12.20;99.90;;;;;;5071172;28;20033;-76
2022/03/29 10:48:05;;;;;;;22.08;8.77;;;12.50;99.90;;;;;;5073045;28;20293;-76
2022/03/29 10:50:56;;;;;;;23.52;8.60;;;12.70;99.90;;;;;;5072966;28;20032;-76
2022/03/29 10:53:27;;;;;;;23.85;9.63;;;12.70;99.90;;;;;;5073301;28;20029;-76
2022/03/29 10:56:17;;;;;;;22.60;9.43;;;12.70;99.90;;;;;;5074814;28;20335;-76
2022/03/29 10:59:04;;;;;;;23.85;9.63;;;12.90;99.90;;;;;;5077347;28;20474;-76
2022/03/29 11:01:30;;;;;;;26.27;9.85;;;13.10;99.90;;;;;;5075778;28;20082;-77
2022/03/29 11:04:03;;;;;;;19.10;8.40;;;13.20;99.90;;;;;;5075553;28;20021;-76
2022/03/29 11:06:29;;;;;;;23.05;9.48;;;13.40;99.90;;;;;;5077030;28;20024;-76
2022/03/29 11:09:06;;;;;;;22.83;8.57;;;13.70;99.90;;;;;;5076672;28;20025;-75
2022/03/29 11:11:41;;;;;;;27.30;9.57;;;13.90;99.90;;;;;;5075608;28;20082;-75
2022/03/29 11:14:35;;;;;;;24.23;9.05;;;14.00;98.80;;;;;;5076689;28;20028;-75
2022/03/29 11:17:01;;;;;;;23.23;9.00;;;14.20;97.60;;;;;;5076569;28;20040;-75
2022/03/29 11:19:51;;;;;;;21.50;9.18;;;14.30;96.60;;;;;;5075203;28;20029;-76
2022/03/29 11:22:25;;;;;;;26.02;9.77;;;14.50;94.00;;;;;;5076537;28;20521;-75
2022/03/29 11:24:53;;;;;;;24.50;9.95;;;14.60;93.40;;;;;;5076490;28;20025;-75
2022/03/29 11:27:45;;;;;;;18.58;8.38;;;14.90;93.20;;;;;;5076713;28;20020;-75
2022/03/29 11:30:12;;;;;;;26.23;9.82;;;15.30;94.80;;;;;;5074511;28;20093;-76
2022/03/29 11:32:43;;;;;;;21.02;8.32;;;15.60;93.50;;;;;;5075091;28;20017;-76
2022/03/29 11:35:11;;;;;;;20.13;8.27;;;15.70;91.20;;;;;;5076404;28;20025;-76
2022/03/29 11:37:41;;;;;;;25.10;9.75;;;15.70;91.40;;;;;;5074950;28;20107;-76
2022/03/29 11:40:09;;;;;;;20.25;9.00;;;15.40;93.60;;;;;;5075973;28;20024;-76
2022/03/29 11:42:50;;;;;;;25.27;9.18;;;15.40;93.40;;;;;;5076274;28;20028;-76
2022/03/29 11:45:18;;;;;;;18.50;8.30;;;15.50;87.80;;;;;;5076108;28;20021;-76
2022/03/29 11:47:55;;;;;;;18.63;8.40;;;15.80;86.30;;;;;;5076018;28;20017;-76
2022/03/29 11:50:39;;;;;;;19.05;8.32;;;15.90;83.40;;;;;;5075855;28;20363;-76
2022/03/29 11:53:34;;;;;;;20.38;8.35;;;16.20;81.80;;;;;;5076267;28;20025;-76
2022/03/29 11:56:13;;;;;;;22.00;9.00;;;16.10;78.30;;;;;;5076059;28;20100;-76
2022/03/29 11:58:41;;;;;;;18.08;8.18;;;15.90;78.60;;;;;;5074811;28;20067;-76
2022/03/29 12:01:13;;;;;;;25.23;9.60;;;15.70;79.80;;;;;;5076323;28;20061;-77
2022/03/29 12:03:45;;;;;;;20.80;7.95;;;15.70;80.80;;;;;;5075822;28;20090;-76
2022/03/29 12:06:16;;;;;;;21.13;8.45;;;15.80;80.10;;;;;;5075043;28;20124;-76
2022/03/29 12:09:06;;;;;;;25.60;9.50;;;15.80;81.10;;;;;;5074560;28;20051;-77
2022/03/29 12:11:35;;;;;;;23.88;9.52;;;15.90;82.10;;;;;;5076980;28;20031;-78
2022/03/29 12:14:12;;;;;;;19.02;9.15;;;16.00;81.40;;;;;;5075333;28;20024;-77
2022/03/29 12:16:42;;;;;;;23.23;9.20;;;16.20;80.80;;;;;;5077648;28;20032;-77
2022/03/29 12:19:19;;;;;;;22.30;9.77;;;16.50;77.70;;;;;;5076830;28;20389;-74
2022/03/29 12:21:51;;;;;;;22.80;9.13;;;16.60;78.50;;;;;;5075893;28;20400;-77
2022/03/29 12:24:18;;;;;;;21.77;8.68;;;16.80;78.40;;;;;;5075259;28;20413;-76
2022/03/29 12:26:51;;;;;;;21.45;8.10;;;17.00;74.60;;;;;;5076349;28;20032;-77
2022/03/29 12:29:25;;;;;;;23.45;9.27;;;17.20;73.10;;;;;;5076737;28;20024;-77
2022/03/29 12:31:54;;;;;;;18.15;7.95;;;17.50;76.00;;;;;;5076137;28;20017;-76
2022/03/29 12:34:29;;;;;;;24.50;9.82;;;17.70;70.00;;;;;;5074149;28;20020;-76
2022/03/29 12:36:59;;;;;;;23.70;8.50;;;17.60;66.80;;;;;;5074006;28;20028;-77
2022/03/29 12:39:32;;;;;;;16.52;7.05;;;17.50;67.70;;;;;;5075349;28;20027;-77
2022/03/29 12:41:58;;;;;;;18.17;7.85;;;17.60;67.20;;;;;;5074095;28;20024;-76
2022/03/29 12:44:34;;;;;;;13.93;7.05;;;17.80;69.00;;;;;;5074893;28;20024;-76
2022/03/29 12:47:00;;;;;;;20.08;7.22;;;17.90;64.20;;;;;;5075481;28;20094;-76
2022/03/29 12:49:27;;;;;;;18.38;7.50;;;18.10;62.00;;;;;;5074841;28;20020;-76
2022/03/29 12:51:54;;;;;;;17.58;7.40;;;18.10;61.50;;;;;;5075203;28;20025;-76